Nina — ICMG — position and weather

sailwx.info

Track history (hours):
 
Tides and Currents Weather Stations Pressure Air Temp Water Temp Dewpoint Dewpoint Depression Visibility Wind Speed Wind Dir Waves Ship Positions

Nina

Last reported at 2015-Sep-01 09:32 UTC. Time now 2015-Sep-02 00:25 UTC.
Position S 24°41' W 044°48'.

Length 180 m; draft 9.8 m.

Type: Tanker. MMSI: 247239700.

Date/timePositionNaut miles runAvg speedWind from/ knotsBaromVisibWave heightAir tempDewpointWater temp
2015-Sep-01 09:32S 24°41' W 044°48'1111.5
2015-Sep-01 08:33S 24°44' W 044°60'1111.6
2015-Sep-01 07:33S 24°48' W 045°12'1111.3
2015-Sep-01 06:34S 24°51' W 045°24'1111.3
2015-Sep-01 05:34S 24°54' W 045°36'1211.6
2015-Sep-01 04:34S 24°58' W 045°48'1211.7
2015-Sep-01 03:34S 25°01' W 046°00'1111.3
2015-Sep-01 02:34S 25°05' W 046°12'1111.2
2015-Sep-01 01:34S 25°08' W 046°24'1111.4
2015-Sep-01 00:34S 25°11' W 046°36'1111.2
2015-Aug-31 23:34S 25°15' W 046°48'1111.3
2015-Aug-31 22:33S 25°18' W 046°60'1211.6
2015-Aug-31 21:33S 25°21' W 047°12'1211.7
2015-Aug-31 20:34S 25°25' W 047°24'1211.8
2015-Aug-31 19:33S 25°28' W 047°37'1211.7
2015-Aug-31 18:33S 25°32' W 047°49'1411.6
2015-Aug-31 17:23S 25°36' W 048°04'911.1
2015-Aug-31 16:34S 25°39' W 048°13'8 7.9
2015-Aug-31 15:33S 25°34' W 048°20'  
2015-Aug-22 23:33S 13°11' W 038°33'1110.8
2015-Aug-22 22:33S 12°60' W 038°33'10 9.7
2015-Aug-22 21:33S 12°50' W 038°34'6 6.4
2015-Aug-22 20:33S 12°45' W 038°38'0 0.0
2015-Aug-22 19:18S 12°45' W 038°38'0 0.0
2015-Aug-22 18:27S 12°45' W 038°38'0 0.0
2015-Aug-22 17:33S 12°45' W 038°38'0 0.0
2015-Aug-22 16:18S 12°45' W 038°38'0 0.0
2015-Aug-22 15:21S 12°45' W 038°38'0 0.0
2015-Aug-22 14:33S 12°45' W 038°38'0 0.0
2015-Aug-22 13:33S 12°45' W 038°38'0 0.0
2015-Aug-22 12:30S 12°45' W 038°38'0 0.0
2015-Aug-22 11:30S 12°45' W 038°38'0 0.0
2015-Aug-22 10:27S 12°45' W 038°38'0 0.0
2015-Aug-22 09:33S 12°45' W 038°38'  
Track history (hours):
 
Tides and Currents Weather Stations Pressure Air Temp Water Temp Dewpoint Dewpoint Depression Visibility Wind Speed Wind Dir Waves Ship Positions

Nina

Last reported at 2015-Sep-01 09:32 UTC. Time now 2015-Sep-02 00:25 UTC.
Position S 24°41' W 044°48'.

Length 180 m; draft 9.8 m.

Type: Tanker. MMSI: 247239700.

Date/timePositionNaut miles runAvg speedWind from/ knotsBaromVisibWave heightAir tempDewpointWater temp
2015-Sep-01 09:32S 24°41' W 044°48'1111.5
2015-Sep-01 08:33S 24°44' W 044°60'1111.6
2015-Sep-01 07:33S 24°48' W 045°12'1111.3
2015-Sep-01 06:34S 24°51' W 045°24'1111.3
2015-Sep-01 05:34S 24°54' W 045°36'1211.6
2015-Sep-01 04:34S 24°58' W 045°48'1211.7
2015-Sep-01 03:34S 25°01' W 046°00'1111.3
2015-Sep-01 02:34S 25°05' W 046°12'1111.2
2015-Sep-01 01:34S 25°08' W 046°24'1111.4
2015-Sep-01 00:34S 25°11' W 046°36'1111.2
2015-Aug-31 23:34S 25°15' W 046°48'1111.3
2015-Aug-31 22:33S 25°18' W 046°60'1211.6
2015-Aug-31 21:33S 25°21' W 047°12'1211.7
2015-Aug-31 20:34S 25°25' W 047°24'1211.8
2015-Aug-31 19:33S 25°28' W 047°37'1211.7
2015-Aug-31 18:33S 25°32' W 047°49'1411.6
2015-Aug-31 17:23S 25°36' W 048°04'911.1
2015-Aug-31 16:34S 25°39' W 048°13'8 7.9
2015-Aug-31 15:33S 25°34' W 048°20'  
2015-Aug-22 23:33S 13°11' W 038°33'1110.8
2015-Aug-22 22:33S 12°60' W 038°33'10 9.7
2015-Aug-22 21:33S 12°50' W 038°34'6 6.4
2015-Aug-22 20:33S 12°45' W 038°38'0 0.0
2015-Aug-22 19:18S 12°45' W 038°38'0 0.0
2015-Aug-22 18:27S 12°45' W 038°38'0 0.0
2015-Aug-22 17:33S 12°45' W 038°38'0 0.0
2015-Aug-22 16:18S 12°45' W 038°38'0 0.0
2015-Aug-22 15:21S 12°45' W 038°38'0 0.0
2015-Aug-22 14:33S 12°45' W 038°38'0 0.0
2015-Aug-22 13:33S 12°45' W 038°38'0 0.0
2015-Aug-22 12:30S 12°45' W 038°38'0 0.0
2015-Aug-22 11:30S 12°45' W 038°38'0 0.0
2015-Aug-22 10:27S 12°45' W 038°38'0 0.0
2015-Aug-22 09:33S 12°45' W 038°38'  

Dump ship's entire track history